createdAt,value
2022-12-25T00:02:58.083Z,4.45
2022-12-25T00:06:02.538Z,4.53
2022-12-25T00:09:06.893Z,4.68
2022-12-25T00:12:10.898Z,3.97
2022-12-25T00:15:14.895Z,4.70
2022-12-25T00:18:19.211Z,4.10
2022-12-25T00:21:23.303Z,4.32
2022-12-25T00:24:27.044Z,4.18
2022-12-25T00:27:34.704Z,4.07
2022-12-25T00:30:40.891Z,3.70
2022-12-25T00:33:46.524Z,4.15
2022-12-25T00:36:51.760Z,4.57
2022-12-25T00:39:55.552Z,4.20
2022-12-25T00:42:59.381Z,4.20
2022-12-25T00:46:05.449Z,4.47
2022-12-25T00:49:09.709Z,4.10
2022-12-25T00:52:13.684Z,4.18
2022-12-25T00:55:17.810Z,3.70
2022-12-25T00:58:22.450Z,5.82
2022-12-25T01:01:26.682Z,4.47
2022-12-25T01:04:30.713Z,4.00
2022-12-25T01:07:34.616Z,4.40
2022-12-25T01:10:38.658Z,4.10
2022-12-25T01:13:42.437Z,4.32
2022-12-25T01:16:46.284Z,4.20
2022-12-25T01:19:50.374Z,4.40
2022-12-25T01:22:54.562Z,4.60
2022-12-25T01:26:04.396Z,4.35
2022-12-25T01:29:08.159Z,4.60
2022-12-25T01:32:12.262Z,4.88
2022-12-25T01:35:16.289Z,3.60
2022-12-25T01:38:20.795Z,3.55
2022-12-25T01:41:25.441Z,3.55
2022-12-25T01:44:35.611Z,3.20
2022-12-25T01:47:39.489Z,3.42
2022-12-25T01:50:47.566Z,3.70
2022-12-25T01:53:51.776Z,3.88
2022-12-25T01:56:59.924Z,4.07
2022-12-25T02:00:10.697Z,4.00
2022-12-25T02:03:14.806Z,3.90
2022-12-25T02:06:18.856Z,4.68
2022-12-25T02:09:22.834Z,4.13
2022-12-25T02:12:30.201Z,4.40
2022-12-25T02:15:55.516Z,4.65
2022-12-25T02:19:07.338Z,4.25
2022-12-25T02:22:47.829Z,4.20
2022-12-25T02:26:14.479Z,4.28
2022-12-25T02:29:25.594Z,3.83
2022-12-25T02:32:36.416Z,3.47
2022-12-25T02:35:42.360Z,3.42
2022-12-25T02:39:10.337Z,3.00
2022-12-25T02:42:23.786Z,3.28
2022-12-25T02:46:01.966Z,3.10
2022-12-25T02:49:28.915Z,3.10
2022-12-25T02:52:51.581Z,3.72
2022-12-25T02:56:15.430Z,3.92
2022-12-25T03:03:05.863Z,3.40
2022-12-25T03:06:29.333Z,3.08
2022-12-25T03:10:04.134Z,4.20
2022-12-25T03:13:14.895Z,3.78
2022-12-25T03:16:39.048Z,4.03
2022-12-25T03:20:01.817Z,4.20
2022-12-25T03:23:25.935Z,3.85
2022-12-25T03:26:48.649Z,3.83
2022-12-25T03:30:12.947Z,4.07
2022-12-25T03:33:45.153Z,3.90
2022-12-25T03:37:23.334Z,3.78
2022-12-25T03:40:45.660Z,3.75
2022-12-25T03:44:30.929Z,3.60
2022-12-25T03:47:59.484Z,3.63
2022-12-25T03:51:28.591Z,3.72
2022-12-25T03:54:53.600Z,4.22
2022-12-25T03:58:16.365Z,3.40
2022-12-25T04:01:39.187Z,3.80
2022-12-25T04:05:02.390Z,3.60
2022-12-25T04:08:25.021Z,4.20
2022-12-25T04:11:47.848Z,4.28
2022-12-25T04:15:10.542Z,5.00
2022-12-25T04:18:33.300Z,3.95
2022-12-25T04:21:56.068Z,4.97
2022-12-25T04:25:19.167Z,4.63
2022-12-25T04:28:41.476Z,4.18
2022-12-25T04:32:04.338Z,4.10
2022-12-25T04:35:28.224Z,4.05
2022-12-25T04:38:33.119Z,4.25
2022-12-25T04:41:37.000Z,4.10
2022-12-25T04:44:41.219Z,4.25
2022-12-25T04:47:45.072Z,4.47
2022-12-25T04:50:49.185Z,4.35
2022-12-25T04:53:53.590Z,4.00
2022-12-25T04:56:57.675Z,4.22
2022-12-25T05:00:01.592Z,4.25
2022-12-25T05:03:05.515Z,4.10
2022-12-25T05:06:09.562Z,4.28
2022-12-25T05:09:13.768Z,4.95
2022-12-25T05:12:17.792Z,4.72
2022-12-25T05:15:22.170Z,4.50
2022-12-25T05:18:26.117Z,5.00
2022-12-25T05:21:30.334Z,3.83
2022-12-25T05:24:34.304Z,4.65
2022-12-25T05:27:38.617Z,4.28
2022-12-25T05:30:42.558Z,4.32
2022-12-25T05:33:50.087Z,4.15
2022-12-25T05:36:53.840Z,4.55
2022-12-25T05:39:57.600Z,4.60
2022-12-25T05:43:01.627Z,4.43
2022-12-25T05:46:07.675Z,4.25
2022-12-25T05:49:11.989Z,4.55
2022-12-25T05:52:15.926Z,4.40
2022-12-25T05:55:19.831Z,4.85
2022-12-25T05:58:24.025Z,4.53
2022-12-25T06:01:29.237Z,4.78
2022-12-25T06:04:33.091Z,4.30
2022-12-25T06:07:37.064Z,4.20
2022-12-25T06:10:40.761Z,4.18
2022-12-25T06:13:44.721Z,4.45
2022-12-25T06:16:52.824Z,4.63
2022-12-25T06:19:57.209Z,4.75
2022-12-25T06:23:01.469Z,4.43
2022-12-25T06:26:07.838Z,4.28
2022-12-25T06:29:11.950Z,5.00
2022-12-25T06:32:16.303Z,3.80
2022-12-25T06:35:20.637Z,4.70
2022-12-25T06:38:24.814Z,5.15
2022-12-25T06:41:29.560Z,4.43
2022-12-25T06:44:33.840Z,4.32
2022-12-25T06:47:38.617Z,4.50
2022-12-25T06:50:44.041Z,5.05
2022-12-25T06:53:49.325Z,4.78
2022-12-25T06:56:53.537Z,5.18
2022-12-25T06:59:57.460Z,4.57
2022-12-25T07:03:01.643Z,4.40
2022-12-25T07:06:05.783Z,5.75
2022-12-25T07:09:10.131Z,4.05
2022-12-25T07:12:17.966Z,4.57
2022-12-25T07:15:22.242Z,3.80
2022-12-25T07:18:26.880Z,4.07
2022-12-25T07:21:31.120Z,4.03
2022-12-25T07:24:35.164Z,3.92
2022-12-25T07:27:39.383Z,4.55
2022-12-25T07:30:43.115Z,4.32
2022-12-25T07:33:47.474Z,4.13
2022-12-25T07:36:51.640Z,3.95
2022-12-25T07:39:55.403Z,4.10
2022-12-25T07:42:59.284Z,4.10
2022-12-25T07:46:03.042Z,4.60
2022-12-25T07:49:07.187Z,3.78
2022-12-25T07:52:11.425Z,4.60
2022-12-25T07:55:15.724Z,4.15
2022-12-25T07:58:23.299Z,4.10
2022-12-25T08:01:28.393Z,3.80
2022-12-25T08:04:32.233Z,3.65
2022-12-25T08:07:36.202Z,4.68
2022-12-25T08:10:45.523Z,4.20
2022-12-25T08:13:49.439Z,4.18
2022-12-25T08:16:53.676Z,4.28
2022-12-25T08:19:57.986Z,3.85
2022-12-25T08:23:02.107Z,4.30
2022-12-25T08:26:08.216Z,4.13
2022-12-25T08:29:12.233Z,4.30
2022-12-25T08:32:16.321Z,4.63
2022-12-25T08:35:20.685Z,3.88
2022-12-25T08:38:24.821Z,3.88
2022-12-25T08:41:29.056Z,4.05
2022-12-25T08:44:33.091Z,4.13
2022-12-25T08:47:37.280Z,4.28
2022-12-25T08:50:51.746Z,3.95
2022-12-25T08:54:00.164Z,3.60
2022-12-25T08:57:05.382Z,4.25
2022-12-25T09:00:10.279Z,3.90
2022-12-25T09:03:14.691Z,3.50
2022-12-25T09:06:18.893Z,3.40
2022-12-25T09:09:27.808Z,3.78
2022-12-25T09:12:31.528Z,3.30
2022-12-25T09:15:37.436Z,3.42
2022-12-25T09:18:41.836Z,3.35
2022-12-25T09:21:46.026Z,3.42
2022-12-25T09:24:50.265Z,3.55
2022-12-25T09:27:56.278Z,3.20
2022-12-25T09:31:00.959Z,3.70
2022-12-25T09:34:04.982Z,3.20
2022-12-25T09:37:09.312Z,3.22
2022-12-25T09:40:18.682Z,4.10
2022-12-25T09:43:23.916Z,3.40
2022-12-25T09:46:38.276Z,3.47
2022-12-25T09:49:50.710Z,3.40
2022-12-25T09:53:07.404Z,3.50
2022-12-25T09:56:18.726Z,3.55
2022-12-25T09:59:27.157Z,3.40
2022-12-25T10:02:40.465Z,3.67
2022-12-25T10:05:55.360Z,3.40
2022-12-25T10:09:08.290Z,3.55
2022-12-25T10:12:27.911Z,3.67
2022-12-25T10:15:59.409Z,2.88
2022-12-25T10:19:33.041Z,3.33
2022-12-25T10:22:47.551Z,3.17
2022-12-25T10:25:53.374Z,3.75
2022-12-25T10:29:13.703Z,3.42
2022-12-25T10:32:17.831Z,3.85
2022-12-25T10:35:24.367Z,3.65
2022-12-25T10:38:28.325Z,3.45
2022-12-25T10:41:51.116Z,3.22
2022-12-25T10:44:56.686Z,3.47
2022-12-25T10:48:07.488Z,3.70
2022-12-25T10:51:11.839Z,3.45
2022-12-25T10:54:23.379Z,3.75
2022-12-25T10:57:29.202Z,3.60
2022-12-25T11:00:33.691Z,3.63
2022-12-25T11:03:40.171Z,3.92
2022-12-25T11:06:44.362Z,3.55
2022-12-25T11:10:15.195Z,3.30
2022-12-25T11:13:26.924Z,3.60
2022-12-25T11:16:40.775Z,3.53
2022-12-25T11:19:56.160Z,3.20
2022-12-25T11:23:00.284Z,3.72
2022-12-25T11:26:07.345Z,3.80
2022-12-25T11:29:26.456Z,4.10
2022-12-25T11:32:46.288Z,4.40
2022-12-25T11:35:52.945Z,4.93
2022-12-25T11:39:05.106Z,3.95
2022-12-25T11:42:28.298Z,5.15
2022-12-25T11:45:38.043Z,4.97
2022-12-25T11:48:45.221Z,4.50
2022-12-25T11:51:51.905Z,5.38
2022-12-25T11:55:07.136Z,12.75
2022-12-25T11:58:23.469Z,15.10
2022-12-25T12:01:36.959Z,5.22
2022-12-25T12:04:44.129Z,3.80
2022-12-25T12:08:03.053Z,4.03
2022-12-25T12:11:22.320Z,4.22
2022-12-25T12:14:53.817Z,4.20
2022-12-25T12:18:20.673Z,3.72
2022-12-25T12:21:28.062Z,3.60
2022-12-25T12:24:40.550Z,3.83
2022-12-25T12:27:44.951Z,3.88
2022-12-25T12:31:02.081Z,3.72
2022-12-25T12:34:07.087Z,3.47
2022-12-25T12:37:36.117Z,3.50
2022-12-25T12:40:54.079Z,4.53
2022-12-25T12:44:00.596Z,3.70
2022-12-25T12:47:04.619Z,4.05
2022-12-25T12:50:34.727Z,3.92
2022-12-25T12:53:40.967Z,3.50
2022-12-25T12:57:25.274Z,4.35
2022-12-25T13:00:41.168Z,4.75
2022-12-25T13:03:53.131Z,3.33
2022-12-25T13:07:32.307Z,3.42
2022-12-25T13:10:40.651Z,3.10
2022-12-25T13:13:45.904Z,3.50
2022-12-25T13:16:52.862Z,2.92
2022-12-25T13:19:59.549Z,2.85
2022-12-25T13:23:13.925Z,2.78
2022-12-25T13:26:18.387Z,2.45
2022-12-25T13:29:34.493Z,2.60
2022-12-25T13:32:38.777Z,2.50
2022-12-25T13:35:44.013Z,2.30
2022-12-25T13:38:51.755Z,2.28
2022-12-25T13:42:11.003Z,2.30
2022-12-25T13:45:26.201Z,2.25
2022-12-25T13:48:31.430Z,2.20
2022-12-25T13:51:35.071Z,2.50
2022-12-25T13:54:39.460Z,3.03
2022-12-25T13:57:55.558Z,2.50
2022-12-25T14:01:01.273Z,2.83
2022-12-25T14:04:06.707Z,3.13
2022-12-25T14:07:12.086Z,2.88
2022-12-25T14:10:16.077Z,5.60
2022-12-25T14:13:24.520Z,5.97
2022-12-25T14:16:29.345Z,3.53
2022-12-25T14:19:34.457Z,3.55
2022-12-25T14:22:38.842Z,3.40
2022-12-25T14:25:45.349Z,3.53
2022-12-25T14:28:53.509Z,3.50
2022-12-25T14:32:00.444Z,2.75
2022-12-25T14:35:04.779Z,2.65
2022-12-25T14:38:17.332Z,3.90
2022-12-25T14:41:33.428Z,2.50
2022-12-25T14:44:40.395Z,3.28
2022-12-25T14:47:54.921Z,2.60
2022-12-25T14:51:08.844Z,2.95
2022-12-25T14:54:20.175Z,4.10
2022-12-25T14:57:34.292Z,6.53
2022-12-25T15:03:43.515Z,4.18
2022-12-25T15:06:55.564Z,5.13
2022-12-25T15:10:36.776Z,4.85
2022-12-25T15:16:30.901Z,5.82
2022-12-25T15:19:38.710Z,5.40
2022-12-25T15:23:10.069Z,5.13
2022-12-25T15:26:13.132Z,4.65
2022-12-25T15:29:23.684Z,4.20
2022-12-25T15:32:40.975Z,4.88
2022-12-25T15:35:45.561Z,4.70
2022-12-25T15:38:50.562Z,5.82
2022-12-25T15:42:12.892Z,5.63
2022-12-25T15:45:26.187Z,3.30
2022-12-25T15:48:30.195Z,6.25
2022-12-25T15:51:34.674Z,5.93
2022-12-25T15:54:38.446Z,5.72
2022-12-25T15:57:44.592Z,4.20
2022-12-25T16:00:48.300Z,3.30
2022-12-25T16:03:52.296Z,3.00
2022-12-25T16:06:57.214Z,2.65
2022-12-25T16:10:01.088Z,2.72
2022-12-25T16:13:04.730Z,2.95
2022-12-25T16:16:08.583Z,2.67
2022-12-25T16:19:12.313Z,2.80
2022-12-25T16:22:23.061Z,2.92
2022-12-25T16:25:27.528Z,2.72
2022-12-25T16:28:31.589Z,2.83
2022-12-25T16:31:36.770Z,2.67
2022-12-25T16:34:40.866Z,2.95
2022-12-25T16:37:45.160Z,2.67
2022-12-25T16:40:55.863Z,2.70
2022-12-25T16:44:03.323Z,2.45
2022-12-25T16:47:07.357Z,2.70
2022-12-25T16:50:11.407Z,2.80
2022-12-25T16:53:15.474Z,3.22
2022-12-25T16:56:30.705Z,3.25
2022-12-25T16:59:35.797Z,3.00
2022-12-25T17:02:40.864Z,3.47
2022-12-25T17:05:45.088Z,3.20
2022-12-25T17:08:50.710Z,3.72
2022-12-25T17:11:54.562Z,3.28
2022-12-25T17:14:58.363Z,3.38
2022-12-25T17:18:02.329Z,3.47
2022-12-25T17:21:06.159Z,3.60
2022-12-25T17:24:10.660Z,4.80
2022-12-25T17:27:14.583Z,5.72
2022-12-25T17:30:18.795Z,5.07
2022-12-25T17:33:22.975Z,4.75
2022-12-25T17:36:27.254Z,3.83
2022-12-25T17:39:31.153Z,4.45
2022-12-25T17:42:35.462Z,4.45
2022-12-25T17:45:39.788Z,4.47
2022-12-25T17:48:44.642Z,3.90
2022-12-25T17:51:48.630Z,4.35
2022-12-25T17:54:52.929Z,4.22
2022-12-25T17:57:57.035Z,4.30
2022-12-25T18:01:09.130Z,4.43
2022-12-25T18:04:13.222Z,4.28
2022-12-25T18:07:17.581Z,4.40
2022-12-25T18:10:21.695Z,4.22
2022-12-25T18:13:25.602Z,4.30
2022-12-25T18:16:32.305Z,3.97
2022-12-25T18:19:37.175Z,3.90
2022-12-25T18:22:41.429Z,3.80
2022-12-25T18:25:45.693Z,3.10
2022-12-25T18:28:50.630Z,2.92
2022-12-25T18:31:55.416Z,2.70
2022-12-25T18:34:59.502Z,2.45
2022-12-25T18:38:05.474Z,2.30
2022-12-25T18:41:10.264Z,2.45
2022-12-25T18:44:14.329Z,2.50
2022-12-25T18:47:18.257Z,2.70
2022-12-25T18:50:22.477Z,2.40
2022-12-25T18:53:28.781Z,2.40
2022-12-25T18:56:33.031Z,2.20
2022-12-25T18:59:37.447Z,2.17
2022-12-25T19:02:41.874Z,2.50
2022-12-25T19:05:45.537Z,2.20
2022-12-25T19:08:49.570Z,2.03
2022-12-25T19:11:55.854Z,2.10
2022-12-25T19:14:59.887Z,2.40
2022-12-25T19:18:04.379Z,2.15
2022-12-25T19:21:09.403Z,2.10
2022-12-25T19:24:13.587Z,2.08
2022-12-25T19:27:17.555Z,2.00
2022-12-25T19:30:21.351Z,1.83
2022-12-25T19:33:25.234Z,1.90
2022-12-25T19:36:29.123Z,1.90
2022-12-25T19:39:33.263Z,1.88
2022-12-25T19:42:37.341Z,1.90
2022-12-25T19:45:41.389Z,1.88
2022-12-25T19:48:45.605Z,1.83
2022-12-25T19:51:49.436Z,1.63
2022-12-25T19:54:53.603Z,1.58
2022-12-25T19:57:59.066Z,1.55
2022-12-25T20:01:06.612Z,1.70
2022-12-25T20:04:11.262Z,1.70
2022-12-25T20:07:15.288Z,1.73
2022-12-25T20:10:19.075Z,1.88
2022-12-25T20:13:23.352Z,1.63
2022-12-25T20:16:27.550Z,2.13
2022-12-25T20:19:31.963Z,1.85
2022-12-25T20:22:36.023Z,1.90
2022-12-25T20:25:41.721Z,1.83
2022-12-25T20:28:46.037Z,1.77
2022-12-25T20:31:51.232Z,1.80
2022-12-25T20:34:55.170Z,1.73
2022-12-25T20:37:59.292Z,2.30
2022-12-25T20:44:30.062Z,1.83
2022-12-25T20:47:34.688Z,1.80
2022-12-25T20:50:38.407Z,2.13
2022-12-25T20:53:42.958Z,1.80
2022-12-25T20:56:48.229Z,1.60
2022-12-25T20:59:52.121Z,1.70
2022-12-25T21:02:56.012Z,1.60
2022-12-25T21:06:01.025Z,1.70
2022-12-25T21:09:05.554Z,1.88
2022-12-25T21:12:09.646Z,1.90
2022-12-25T21:15:15.804Z,1.98
2022-12-25T21:18:21.580Z,1.70
2022-12-25T21:21:25.792Z,1.50
2022-12-25T21:24:30.067Z,1.77
2022-12-25T21:27:33.939Z,1.90
2022-12-25T21:30:38.241Z,1.80
2022-12-25T21:33:51.280Z,1.65
2022-12-25T21:36:55.054Z,1.60
2022-12-25T21:39:59.251Z,1.58
2022-12-25T21:43:04.583Z,1.77
2022-12-25T21:46:13.733Z,1.73
2022-12-25T21:49:37.428Z,1.48
2022-12-25T21:52:41.299Z,1.80
2022-12-25T21:55:59.150Z,1.73
2022-12-25T21:59:04.801Z,1.60
2022-12-25T22:02:11.529Z,1.80
2022-12-25T22:05:36.107Z,1.80
2022-12-25T22:08:40.338Z,1.90
2022-12-25T22:12:03.337Z,1.70
2022-12-25T22:15:09.621Z,1.70
2022-12-25T22:18:32.425Z,1.45
2022-12-25T22:21:36.507Z,1.50
2022-12-25T22:24:40.532Z,2.35
2022-12-25T22:27:45.608Z,1.90
2022-12-25T22:30:49.786Z,1.90
2022-12-25T22:33:54.966Z,1.90
2022-12-25T22:36:59.258Z,1.77
2022-12-25T22:40:04.013Z,1.70
2022-12-25T22:43:08.578Z,1.90
2022-12-25T22:46:12.581Z,1.80
2022-12-25T22:49:17.380Z,1.90
2022-12-25T22:52:21.949Z,1.90
2022-12-25T22:55:25.835Z,1.90
2022-12-25T22:58:29.837Z,1.85
2022-12-25T23:01:34.164Z,2.10
2022-12-25T23:04:38.199Z,1.90
2022-12-25T23:07:42.230Z,2.25
2022-12-25T23:10:46.243Z,2.33
2022-12-25T23:14:08.912Z,2.30
2022-12-25T23:17:31.743Z,2.10
2022-12-25T23:20:55.551Z,2.22
2022-12-25T23:24:18.809Z,2.00
2022-12-25T23:27:23.015Z,2.25
2022-12-25T23:30:27.568Z,2.20
2022-12-25T23:33:32.010Z,2.25
2022-12-25T23:36:36.321Z,2.28
2022-12-25T23:39:41.312Z,2.20
2022-12-25T23:42:45.007Z,2.28
2022-12-25T23:45:48.945Z,2.20
2022-12-25T23:48:52.903Z,2.13
2022-12-25T23:51:57.254Z,2.38
2022-12-25T23:55:01.112Z,2.30
2022-12-25T23:58:05.131Z,2.38
